Herscher, IL (60941)

9:58 PM CDT on August 29, 2015 (GMT -0500)
Herscher Fire Department | | Change Station
CLOSE
Current Station
Personal Weather Station
Location: Herscher, IL
Elevation: 656 ft
Nearby Weather Stations

Elev 656 ft 41.05 °N, 88.09 °W | Updated 31 minutes ago

Overcast
Overcast
72.3 °F
Feels Like 72.3 °F
N
1.0
Wind Variable Wind from WNW
Gusts 3.0 mph

Today
High -- | Low -- °F
--% Chance of Precip.
Yesterday
High -- | Low -- °F
Precip. -- in
6:15 AM 7:30 PM
Full, 100% visible
Pressure 30.03 in
Visibility 2.0 miles
Clouds Mostly Cloudy 3200 ft
Overcast 6000 ft
Dew Point 69 °F
Humidity 89%
Rainfall 0.00 in
Snow Depth Not available.
UV 0 out of 12
Pollen 1.10 out of 12
Air Quality Not available.
Flu Activity Not available.
METAR KIKK 300235Z AUTO 00000KT 2SM VCTS BR BKN032 OVC060 22/21 A3003 RMK AO2 LTG DSNT E T02150213
Pressure 30.03 in
Visibility 2.0 miles
Clouds Mostly Cloudy 3200 ft
Overcast 6000 ft
Dew Point 69 °F
Humidity 89%
Rainfall 0.00 in
Snow Depth Not available.
UV 0 out of 12
Pollen 1.10 out of 12
Air Quality Not available.
Flu Activity Not available.
METAR KIKK 300235Z AUTO 00000KT 2SM VCTS BR BKN032 OVC060 22/21 A3003 RMK AO2 LTG DSNT E T02150213

10-Day Weather Forecast

×

Almanac

Astronomy

Aug. 29, 2015 Rise Set
Actual Time
Civil Twilight
Nautical Twilight
Astronomical Twilight
Moon
Length of Visible Light
Length of Day
Tomorrow will be .
, % of the Moon is Illuminated

Today's Extremes

State Highs State Lows

Community

WunderPhotos

Upload Photos

1,850,855 photos uploaded!

WunderBlogs® & News

Nearby

Air Quality

  Air Quality AQ Index Pollutant
Not available.

Snow Depth

Station Depth Elevation

Earthquake Activity

City Distance Mag. Time & Date
Minimum magnitude displayed is 2.5.

Coastal Water Temperatures

Place Temperature

Stations

Nearby Weather Stations

Station Location Temp. Windchill Dew Point Humidity Wind Precip. Elev Updated Type